Terminal Aerodrome Forecast
Issued by NWS

Home | Current Version | Previous Version | Text Only | Print | Product List | Glossary On
Versions: 1 2 3 4 5 6 7 8 9 10 11 12 13 14 15 16 17 18 19 20 21 22 23
250
FTUS43 KIND 242320
TAFHUF
TAF
KHUF 242320Z 2500/2524 27012G20KT P6SM VCTS BKN035CB OVC050
     FM250200 27011KT P6SM BKN040
     FM250900 27015KT P6SM BKN025
     FM251500 28016G24KT P6SM OVC035
     FM252200 28013KT P6SM SCT060=

USA.gov is the U.S. government's official web portal to all federal, state and local government web resources and services.